Flugplatz Bartholomä-Amalienhof

Für EDPU sind keine METAR/TAF Berichte vorhanden.
Es werden die Flugwettermeldungen vom Flugplatz Adolf Würth in 44 km Entfernung angezeigt.

Bericht für EDTY

vom 28.05. um 11:50 UTC

Wind 9 kt aus 30°

Sichtweite 10 km oder mehr

gering bewölkt in 3900 ft

aufgelockert bewölkt in 5100 ft

Temperatur 18.0°C

Taupunkt 6.0°C

Luftfeuchtigkeit 45%

Luftdruck 1029 hPa

EDTY 281150Z 03009KT 350V090 9999 FEW039 SCT051 18/06 Q1029

Prognose für EDTY

vom 28.05. um 11:00 UTC

Zwischen 12:00 UTC und 17:00 UTC

Wind 10 kt aus 360°

Sichtweite 10 km oder mehr

aufgelockert bewölkt in 3000 ft

aufgebrochene Bewölkung in 4500 ft


Zwischen 17:00 und 19:00 UTC übergehend zu

Wind 5 kt aus 20°

Sichtweite 10 km oder mehr

aufgelockert bewölkt in 3000 ft

aufgebrochene Bewölkung in 4500 ft

TAF EDTY 281100Z 2812/2821 36010KT 9999 SCT030 BKN045 BECMG 2817/2819 02005KT
Impressum